sensor_id;sensor_type;location;lat;lon;timestamp;P1;durP1;ratioP1;P2;durP2;ratioP2
20336;SDS011;10326;53.660;10.200;2023-11-21T00:01:32;13.02;;;11.63;;
20336;SDS011;10326;53.660;10.200;2023-11-21T00:03:59;12.30;;;11.00;;
20336;SDS011;10326;53.660;10.200;2023-11-21T00:06:28;11.07;;;9.70;;
20336;SDS011;10326;53.660;10.200;2023-11-21T00:08:55;10.02;;;9.02;;
20336;SDS011;10326;53.660;10.200;2023-11-21T00:11:22;9.15;;;8.05;;
20336;SDS011;10326;53.660;10.200;2023-11-21T00:13:50;9.13;;;7.88;;
20336;SDS011;10326;53.660;10.200;2023-11-21T00:16:17;9.18;;;8.20;;
20336;SDS011;10326;53.660;10.200;2023-11-21T00:18:44;9.80;;;8.80;;
20336;SDS011;10326;53.660;10.200;2023-11-21T00:21:12;11.68;;;9.45;;
20336;SDS011;10326;53.660;10.200;2023-11-21T00:23:40;10.32;;;8.95;;
20336;SDS011;10326;53.660;10.200;2023-11-21T00:26:08;11.80;;;10.60;;
20336;SDS011;10326;53.660;10.200;2023-11-21T00:28:35;12.38;;;10.60;;
20336;SDS011;10326;53.660;10.200;2023-11-21T00:31:02;12.52;;;10.88;;
20336;SDS011;10326;53.660;10.200;2023-11-21T00:33:30;12.77;;;10.73;;
20336;SDS011;10326;53.660;10.200;2023-11-21T00:35:58;11.15;;;9.98;;
20336;SDS011;10326;53.660;10.200;2023-11-21T00:38:25;11.82;;;10.20;;
20336;SDS011;10326;53.660;10.200;2023-11-21T00:40:54;12.48;;;10.52;;
20336;SDS011;10326;53.660;10.200;2023-11-21T00:43:21;11.63;;;10.30;;
20336;SDS011;10326;53.660;10.200;2023-11-21T00:45:49;12.15;;;10.93;;
20336;SDS011;10326;53.660;10.200;2023-11-21T00:48:16;12.30;;;10.10;;
20336;SDS011;10326;53.660;10.200;2023-11-21T00:50:44;13.02;;;10.88;;
20336;SDS011;10326;53.660;10.200;2023-11-21T00:53:11;13.63;;;11.43;;
20336;SDS011;10326;53.660;10.200;2023-11-21T00:55:38;14.98;;;12.00;;
20336;SDS011;10326;53.660;10.200;2023-11-21T00:58:07;13.75;;;12.35;;
20336;SDS011;10326;53.660;10.200;2023-11-21T01:00:35;14.38;;;12.18;;
20336;SDS011;10326;53.660;10.200;2023-11-21T01:03:04;14.82;;;10.77;;
20336;SDS011;10326;53.660;10.200;2023-11-21T01:05:34;14.60;;;12.20;;
20336;SDS011;10326;53.660;10.200;2023-11-21T01:08:02;13.30;;;11.52;;
20336;SDS011;10326;53.660;10.200;2023-11-21T01:10:29;12.43;;;11.10;;
20336;SDS011;10326;53.660;10.200;2023-11-21T01:12:56;13.57;;;11.57;;
20336;SDS011;10326;53.660;10.200;2023-11-21T01:15:25;11.50;;;10.40;;
20336;SDS011;10326;53.660;10.200;2023-11-21T01:17:52;11.43;;;10.10;;
20336;SDS011;10326;53.660;10.200;2023-11-21T01:20:20;11.55;;;9.65;;
20336;SDS011;10326;53.660;10.200;2023-11-21T01:22:47;10.20;;;9.13;;
20336;SDS011;10326;53.660;10.200;2023-11-21T01:25:14;10.35;;;8.63;;
20336;SDS011;10326;53.660;10.200;2023-11-21T01:27:42;10.23;;;8.80;;
20336;SDS011;10326;53.660;10.200;2023-11-21T01:30:10;9.70;;;8.70;;
20336;SDS011;10326;53.660;10.200;2023-11-21T01:32:39;8.73;;;7.90;;
20336;SDS011;10326;53.660;10.200;2023-11-21T01:35:06;8.38;;;7.55;;
20336;SDS011;10326;53.660;10.200;2023-11-21T01:37:35;7.85;;;7.05;;
20336;SDS011;10326;53.660;10.200;2023-11-21T01:40:02;8.10;;;7.38;;
20336;SDS011;10326;53.660;10.200;2023-11-21T01:42:34;8.68;;;7.78;;
20336;SDS011;10326;53.660;10.200;2023-11-21T01:45:02;7.82;;;7.03;;
20336;SDS011;10326;53.660;10.200;2023-11-21T01:47:30;7.75;;;6.95;;
20336;SDS011;10326;53.660;10.200;2023-11-21T01:50:00;8.25;;;7.45;;
20336;SDS011;10326;53.660;10.200;2023-11-21T01:52:29;7.75;;;6.88;;
20336;SDS011;10326;53.660;10.200;2023-11-21T01:54:57;7.80;;;7.00;;
20336;SDS011;10326;53.660;10.200;2023-11-21T01:57:25;7.43;;;6.68;;
20336;SDS011;10326;53.660;10.200;2023-11-21T01:59:53;7.82;;;7.13;;
20336;SDS011;10326;53.660;10.200;2023-11-21T02:02:20;7.55;;;6.82;;
20336;SDS011;10326;53.660;10.200;2023-11-21T02:04:48;7.45;;;6.63;;
20336;SDS011;10326;53.660;10.200;2023-11-21T02:07:16;7.13;;;6.50;;
20336;SDS011;10326;53.660;10.200;2023-11-21T02:09:44;8.43;;;6.70;;
20336;SDS011;10326;53.660;10.200;2023-11-21T02:12:13;6.97;;;6.28;;
20336;SDS011;10326;53.660;10.200;2023-11-21T02:14:41;7.30;;;6.60;;
20336;SDS011;10326;53.660;10.200;2023-11-21T02:17:08;7.70;;;6.93;;
20336;SDS011;10326;53.660;10.200;2023-11-21T02:19:35;7.43;;;6.72;;
20336;SDS011;10326;53.660;10.200;2023-11-21T02:22:04;8.00;;;7.10;;
20336;SDS011;10326;53.660;10.200;2023-11-21T02:24:33;7.40;;;6.65;;
20336;SDS011;10326;53.660;10.200;2023-11-21T02:27:02;7.40;;;6.70;;
20336;SDS011;10326;53.660;10.200;2023-11-21T02:29:29;7.80;;;7.10;;
20336;SDS011;10326;53.660;10.200;2023-11-21T02:31:57;7.57;;;6.82;;
20336;SDS011;10326;53.660;10.200;2023-11-21T02:34:24;8.60;;;6.85;;
20336;SDS011;10326;53.660;10.200;2023-11-21T02:36:52;8.02;;;6.70;;
20336;SDS011;10326;53.660;10.200;2023-11-21T02:39:19;8.45;;;7.45;;
20336;SDS011;10326;53.660;10.200;2023-11-21T02:41:48;7.85;;;6.72;;
20336;SDS011;10326;53.660;10.200;2023-11-21T02:44:16;8.15;;;7.03;;
20336;SDS011;10326;53.660;10.200;2023-11-21T02:46:43;7.85;;;7.15;;
20336;SDS011;10326;53.660;10.200;2023-11-21T02:49:10;8.02;;;6.53;;
20336;SDS011;10326;53.660;10.200;2023-11-21T02:51:37;7.10;;;6.50;;
20336;SDS011;10326;53.660;10.200;2023-11-21T02:54:05;8.38;;;7.20;;
20336;SDS011;10326;53.660;10.200;2023-11-21T02:56:33;7.38;;;6.60;;
20336;SDS011;10326;53.660;10.200;2023-11-21T02:59:03;7.40;;;6.60;;
20336;SDS011;10326;53.660;10.200;2023-11-21T03:01:30;8.27;;;7.47;;
20336;SDS011;10326;53.660;10.200;2023-11-21T03:03:57;7.93;;;6.85;;
20336;SDS011;10326;53.660;10.200;2023-11-21T03:06:25;7.72;;;6.82;;
20336;SDS011;10326;53.660;10.200;2023-11-21T03:08:52;9.10;;;7.60;;
20336;SDS011;10326;53.660;10.200;2023-11-21T03:11:19;7.97;;;7.18;;
20336;SDS011;10326;53.660;10.200;2023-11-21T03:13:46;9.00;;;8.02;;
20336;SDS011;10326;53.660;10.200;2023-11-21T03:16:15;8.65;;;7.72;;
20336;SDS011;10326;53.660;10.200;2023-11-21T03:18:45;8.38;;;7.55;;
20336;SDS011;10326;53.660;10.200;2023-11-21T03:21:12;8.25;;;7.45;;
20336;SDS011;10326;53.660;10.200;2023-11-21T03:23:39;8.07;;;7.28;;
20336;SDS011;10326;53.660;10.200;2023-11-21T03:26:06;8.75;;;7.60;;
20336;SDS011;10326;53.660;10.200;2023-11-21T03:28:38;9.75;;;8.68;;
20336;SDS011;10326;53.660;10.200;2023-11-21T03:31:05;8.73;;;7.82;;
20336;SDS011;10326;53.660;10.200;2023-11-21T03:33:35;8.75;;;7.95;;
20336;SDS011;10326;53.660;10.200;2023-11-21T03:36:02;10.15;;;7.90;;
20336;SDS011;10326;53.660;10.200;2023-11-21T03:38:30;8.65;;;7.72;;
20336;SDS011;10326;53.660;10.200;2023-11-21T03:40:57;9.25;;;8.35;;
20336;SDS011;10326;53.660;10.200;2023-11-21T03:43:26;7.97;;;7.18;;
20336;SDS011;10326;53.660;10.200;2023-11-21T03:45:53;10.52;;;7.78;;
20336;SDS011;10326;53.660;10.200;2023-11-21T03:48:21;8.60;;;7.43;;
20336;SDS011;10326;53.660;10.200;2023-11-21T03:50:50;8.50;;;7.53;;
20336;SDS011;10326;53.660;10.200;2023-11-21T03:53:17;7.90;;;7.10;;
20336;SDS011;10326;53.660;10.200;2023-11-21T03:55:44;8.65;;;7.85;;
20336;SDS011;10326;53.660;10.200;2023-11-21T03:58:11;7.70;;;7.00;;
20336;SDS011;10326;53.660;10.200;2023-11-21T04:00:38;7.70;;;7.00;;
20336;SDS011;10326;53.660;10.200;2023-11-21T04:03:05;7.80;;;7.10;;
20336;SDS011;10326;53.660;10.200;2023-11-21T04:05:32;8.55;;;7.53;;
20336;SDS011;10326;53.660;10.200;2023-11-21T04:08:01;8.70;;;7.80;;
20336;SDS011;10326;53.660;10.200;2023-11-21T04:10:28;9.15;;;7.70;;
20336;SDS011;10326;53.660;10.200;2023-11-21T04:12:55;8.35;;;7.55;;
20336;SDS011;10326;53.660;10.200;2023-11-21T04:15:22;8.57;;;7.78;;
20336;SDS011;10326;53.660;10.200;2023-11-21T04:17:49;8.20;;;7.40;;
20336;SDS011;10326;53.660;10.200;2023-11-21T04:20:17;8.95;;;7.93;;
20336;SDS011;10326;53.660;10.200;2023-11-21T04:22:44;8.15;;;7.30;;
20336;SDS011;10326;53.660;10.200;2023-11-21T04:25:13;8.13;;;7.25;;
20336;SDS011;10326;53.660;10.200;2023-11-21T04:27:41;8.50;;;7.57;;
20336;SDS011;10326;53.660;10.200;2023-11-21T04:30:10;7.47;;;6.78;;
20336;SDS011;10326;53.660;10.200;2023-11-21T04:32:38;7.50;;;6.80;;
20336;SDS011;10326;53.660;10.200;2023-11-21T04:35:07;8.27;;;7.45;;
20336;SDS011;10326;53.660;10.200;2023-11-21T04:37:35;7.32;;;6.63;;
20336;SDS011;10326;53.660;10.200;2023-11-21T04:40:02;8.05;;;6.70;;
20336;SDS011;10326;53.660;10.200;2023-11-21T04:42:34;8.13;;;6.40;;
20336;SDS011;10326;53.660;10.200;2023-11-21T04:45:01;8.02;;;7.07;;
20336;SDS011;10326;53.660;10.200;2023-11-21T04:47:33;7.43;;;6.55;;
20336;SDS011;10326;53.660;10.200;2023-11-21T04:50:00;7.50;;;6.80;;
20336;SDS011;10326;53.660;10.200;2023-11-21T04:52:27;7.80;;;6.88;;
20336;SDS011;10326;53.660;10.200;2023-11-21T04:54:54;7.25;;;6.55;;
20336;SDS011;10326;53.660;10.200;2023-11-21T04:57:23;7.43;;;6.78;;
20336;SDS011;10326;53.660;10.200;2023-11-21T04:59:51;9.65;;;7.50;;
20336;SDS011;10326;53.660;10.200;2023-11-21T05:02:20;7.88;;;7.13;;
20336;SDS011;10326;53.660;10.200;2023-11-21T05:04:47;8.23;;;7.43;;
20336;SDS011;10326;53.660;10.200;2023-11-21T05:07:14;7.97;;;7.18;;
20336;SDS011;10326;53.660;10.200;2023-11-21T05:09:41;7.53;;;6.82;;
20336;SDS011;10326;53.660;10.200;2023-11-21T05:12:11;8.07;;;7.30;;
20336;SDS011;10326;53.660;10.200;2023-11-21T05:14:39;7.63;;;6.93;;
20336;SDS011;10326;53.660;10.200;2023-11-21T05:17:08;8.10;;;7.30;;
20336;SDS011;10326;53.660;10.200;2023-11-21T05:19:35;8.07;;;7.28;;
20336;SDS011;10326;53.660;10.200;2023-11-21T05:22:04;8.02;;;7.10;;
20336;SDS011;10326;53.660;10.200;2023-11-21T05:24:31;8.15;;;7.45;;
20336;SDS011;10326;53.660;10.200;2023-11-21T05:26:58;7.55;;;6.85;;
20336;SDS011;10326;53.660;10.200;2023-11-21T05:29:25;7.82;;;7.10;;
20336;SDS011;10326;53.660;10.200;2023-11-21T05:31:52;7.50;;;6.80;;
20336;SDS011;10326;53.660;10.200;2023-11-21T05:34:21;7.82;;;7.03;;
20336;SDS011;10326;53.660;10.200;2023-11-21T05:36:49;8.68;;;7.53;;
20336;SDS011;10326;53.660;10.200;2023-11-21T05:39:16;7.97;;;7.18;;
20336;SDS011;10326;53.660;10.200;2023-11-21T05:41:44;7.85;;;7.05;;
20336;SDS011;10326;53.660;10.200;2023-11-21T05:44:12;8.55;;;7.60;;
20336;SDS011;10326;53.660;10.200;2023-11-21T05:46:40;7.93;;;7.22;;
20336;SDS011;10326;53.660;10.200;2023-11-21T05:49:08;8.75;;;7.85;;
20336;SDS011;10326;53.660;10.200;2023-11-21T05:51:37;8.45;;;7.50;;
20336;SDS011;10326;53.660;10.200;2023-11-21T05:54:05;7.35;;;6.65;;
20336;SDS011;10326;53.660;10.200;2023-11-21T05:56:33;8.32;;;7.35;;
20336;SDS011;10326;53.660;10.200;2023-11-21T05:59:00;8.55;;;7.65;;
20336;SDS011;10326;53.660;10.200;2023-11-21T06:01:28;8.50;;;7.68;;
20336;SDS011;10326;53.660;10.200;2023-11-21T06:03:55;7.72;;;6.93;;
20336;SDS011;10326;53.660;10.200;2023-11-21T06:06:22;8.20;;;7.40;;
20336;SDS011;10326;53.660;10.200;2023-11-21T06:08:52;7.80;;;7.10;;
20336;SDS011;10326;53.660;10.200;2023-11-21T06:11:19;8.60;;;7.80;;
20336;SDS011;10326;53.660;10.200;2023-11-21T06:13:46;8.95;;;7.57;;
20336;SDS011;10326;53.660;10.200;2023-11-21T06:16:14;8.50;;;7.65;;
20336;SDS011;10326;53.660;10.200;2023-11-21T06:18:44;7.93;;;7.13;;
20336;SDS011;10326;53.660;10.200;2023-11-21T06:21:12;9.00;;;7.57;;
20336;SDS011;10326;53.660;10.200;2023-11-21T06:23:41;8.40;;;7.63;;
20336;SDS011;10326;53.660;10.200;2023-11-21T06:26:10;8.02;;;7.22;;
20336;SDS011;10326;53.660;10.200;2023-11-21T06:28:38;8.45;;;7.63;;
20336;SDS011;10326;53.660;10.200;2023-11-21T06:31:05;8.50;;;7.65;;
20336;SDS011;10326;53.660;10.200;2023-11-21T06:33:32;8.27;;;7.47;;
20336;SDS011;10326;53.660;10.200;2023-11-21T06:35:59;8.13;;;7.32;;
20336;SDS011;10326;53.660;10.200;2023-11-21T06:38:27;8.35;;;7.55;;
20336;SDS011;10326;53.660;10.200;2023-11-21T06:40:57;9.13;;;7.25;;
20336;SDS011;10326;53.660;10.200;2023-11-21T06:43:28;8.10;;;6.72;;
20336;SDS011;10326;53.660;10.200;2023-11-21T06:45:56;7.28;;;6.57;;
20336;SDS011;10326;53.660;10.200;2023-11-21T06:48:23;7.30;;;6.60;;
20336;SDS011;10326;53.660;10.200;2023-11-21T06:50:50;6.75;;;6.15;;
20336;SDS011;10326;53.660;10.200;2023-11-21T06:53:18;7.63;;;6.63;;
20336;SDS011;10326;53.660;10.200;2023-11-21T06:55:46;7.13;;;6.43;;
20336;SDS011;10326;53.660;10.200;2023-11-21T06:58:13;7.13;;;6.38;;
20336;SDS011;10326;53.660;10.200;2023-11-21T07:00:42;6.85;;;6.07;;
20336;SDS011;10326;53.660;10.200;2023-11-21T07:03:13;7.93;;;6.03;;
20336;SDS011;10326;53.660;10.200;2023-11-21T07:05:41;7.35;;;6.70;;
20336;SDS011;10326;53.660;10.200;2023-11-21T07:08:08;6.80;;;6.20;;
20336;SDS011;10326;53.660;10.200;2023-11-21T07:10:35;6.28;;;5.68;;
20336;SDS011;10326;53.660;10.200;2023-11-21T07:13:03;8.25;;;6.63;;
20336;SDS011;10326;53.660;10.200;2023-11-21T07:15:30;6.65;;;6.00;;
20336;SDS011;10326;53.660;10.200;2023-11-21T07:17:59;6.72;;;6.03;;
20336;SDS011;10326;53.660;10.200;2023-11-21T07:20:26;6.05;;;5.50;;
20336;SDS011;10326;53.660;10.200;2023-11-21T07:22:55;6.45;;;5.85;;
20336;SDS011;10326;53.660;10.200;2023-11-21T07:25:23;5.78;;;5.28;;
20336;SDS011;10326;53.660;10.200;2023-11-21T07:27:50;7.28;;;6.40;;
20336;SDS011;10326;53.660;10.200;2023-11-21T07:30:18;6.88;;;6.00;;
20336;SDS011;10326;53.660;10.200;2023-11-21T07:32:45;6.47;;;5.85;;
20336;SDS011;10326;53.660;10.200;2023-11-21T07:35:14;6.43;;;5.43;;
20336;SDS011;10326;53.660;10.200;2023-11-21T07:37:41;7.22;;;6.13;;
20336;SDS011;10326;53.660;10.200;2023-11-21T07:40:09;5.90;;;5.32;;
20336;SDS011;10326;53.660;10.200;2023-11-21T07:42:37;6.32;;;5.72;;
20336;SDS011;10326;53.660;10.200;2023-11-21T07:45:05;6.00;;;5.40;;
20336;SDS011;10326;53.660;10.200;2023-11-21T07:47:33;5.80;;;5.30;;
20336;SDS011;10326;53.660;10.200;2023-11-21T07:50:01;5.75;;;5.25;;
20336;SDS011;10326;53.660;10.200;2023-11-21T07:52:30;6.53;;;5.50;;
20336;SDS011;10326;53.660;10.200;2023-11-21T07:54:57;5.63;;;5.13;;
20336;SDS011;10326;53.660;10.200;2023-11-21T07:57:24;6.10;;;5.50;;
20336;SDS011;10326;53.660;10.200;2023-11-21T07:59:51;5.70;;;5.15;;
20336;SDS011;10326;53.660;10.200;2023-11-21T08:02:19;5.47;;;4.95;;
20336;SDS011;10326;53.660;10.200;2023-11-21T08:04:46;5.80;;;5.20;;
20336;SDS011;10326;53.660;10.200;2023-11-21T08:07:14;5.63;;;5.13;;
20336;SDS011;10326;53.660;10.200;2023-11-21T08:09:43;5.43;;;4.93;;
20336;SDS011;10326;53.660;10.200;2023-11-21T08:12:11;5.68;;;5.07;;
20336;SDS011;10326;53.660;10.200;2023-11-21T08:14:39;4.95;;;4.55;;
20336;SDS011;10326;53.660;10.200;2023-11-21T08:17:07;5.53;;;5.10;;
20336;SDS011;10326;53.660;10.200;2023-11-21T08:19:35;4.78;;;4.28;;
20336;SDS011;10326;53.660;10.200;2023-11-21T08:22:03;4.60;;;4.20;;
20336;SDS011;10326;53.660;10.200;2023-11-21T08:24:32;4.63;;;4.22;;
20336;SDS011;10326;53.660;10.200;2023-11-21T08:27:01;5.50;;;4.20;;
20336;SDS011;10326;53.660;10.200;2023-11-21T08:29:29;4.38;;;3.97;;
20336;SDS011;10326;53.660;10.200;2023-11-21T08:31:57;4.68;;;4.25;;
20336;SDS011;10326;53.660;10.200;2023-11-21T08:34:25;4.82;;;3.92;;
20336;SDS011;10326;53.660;10.200;2023-11-21T08:36:53;4.53;;;3.90;;
20336;SDS011;10326;53.660;10.200;2023-11-21T08:39:20;4.32;;;3.92;;
20336;SDS011;10326;53.660;10.200;2023-11-21T08:41:50;4.57;;;4.03;;
20336;SDS011;10326;53.660;10.200;2023-11-21T08:44:18;4.13;;;3.72;;
20336;SDS011;10326;53.660;10.200;2023-11-21T08:46:46;4.43;;;4.03;;
20336;SDS011;10326;53.660;10.200;2023-11-21T08:49:14;4.75;;;3.95;;
20336;SDS011;10326;53.660;10.200;2023-11-21T08:51:43;3.90;;;3.60;;
20336;SDS011;10326;53.660;10.200;2023-11-21T08:54:11;3.90;;;3.38;;
20336;SDS011;10326;53.660;10.200;2023-11-21T08:56:38;3.83;;;3.45;;
20336;SDS011;10326;53.660;10.200;2023-11-21T08:59:05;5.70;;;4.15;;
20336;SDS011;10326;53.660;10.200;2023-11-21T09:01:35;4.22;;;3.83;;
20336;SDS011;10326;53.660;10.200;2023-11-21T09:04:02;3.95;;;3.65;;
20336;SDS011;10326;53.660;10.200;2023-11-21T09:06:29;4.07;;;3.67;;
20336;SDS011;10326;53.660;10.200;2023-11-21T09:08:56;5.15;;;3.90;;
20336;SDS011;10326;53.660;10.200;2023-11-21T09:11:24;4.68;;;4.00;;
20336;SDS011;10326;53.660;10.200;2023-11-21T09:13:56;4.57;;;3.63;;
20336;SDS011;10326;53.660;10.200;2023-11-21T09:16:24;4.63;;;3.63;;
20336;SDS011;10326;53.660;10.200;2023-11-21T09:18:52;4.80;;;4.30;;
20336;SDS011;10326;53.660;10.200;2023-11-21T09:21:19;4.45;;;4.05;;
20336;SDS011;10326;53.660;10.200;2023-11-21T09:23:47;4.30;;;3.90;;
20336;SDS011;10326;53.660;10.200;2023-11-21T09:26:15;4.28;;;3.97;;
20336;SDS011;10326;53.660;10.200;2023-11-21T09:28:43;4.20;;;3.80;;
20336;SDS011;10326;53.660;10.200;2023-11-21T09:31:12;4.20;;;3.90;;
20336;SDS011;10326;53.660;10.200;2023-11-21T09:33:41;4.45;;;3.90;;
20336;SDS011;10326;53.660;10.200;2023-11-21T09:36:12;4.18;;;3.78;;
20336;SDS011;10326;53.660;10.200;2023-11-21T09:38:39;4.25;;;3.78;;
20336;SDS011;10326;53.660;10.200;2023-11-21T09:41:09;3.97;;;3.53;;
20336;SDS011;10326;53.660;10.200;2023-11-21T09:43:45;3.65;;;3.30;;
20336;SDS011;10326;53.660;10.200;2023-11-21T09:46:14;3.97;;;3.58;;
20336;SDS011;10326;53.660;10.200;2023-11-21T09:48:47;3.65;;;3.33;;
20336;SDS011;10326;53.660;10.200;2023-11-21T09:51:20;4.75;;;3.30;;
20336;SDS011;10326;53.660;10.200;2023-11-21T09:53:55;4.20;;;3.22;;
20336;SDS011;10326;53.660;10.200;2023-11-21T09:56:26;3.92;;;3.30;;
20336;SDS011;10326;53.660;10.200;2023-11-21T09:58:55;3.90;;;3.42;;
20336;SDS011;10326;53.660;10.200;2023-11-21T10:01:31;5.47;;;3.38;;
20336;SDS011;10326;53.660;10.200;2023-11-21T10:03:59;3.20;;;3.00;;
20336;SDS011;10326;53.660;10.200;2023-11-21T10:06:28;3.67;;;3.30;;
20336;SDS011;10326;53.660;10.200;2023-11-21T10:08:58;4.70;;;3.25;;
20336;SDS011;10326;53.660;10.200;2023-11-21T10:11:26;3.92;;;3.05;;
20336;SDS011;10326;53.660;10.200;2023-11-21T10:13:55;3.45;;;3.17;;
20336;SDS011;10326;53.660;10.200;2023-11-21T10:16:24;3.85;;;3.20;;
20336;SDS011;10326;53.660;10.200;2023-11-21T10:18:53;4.15;;;3.35;;
20336;SDS011;10326;53.660;10.200;2023-11-21T10:21:22;3.63;;;3.33;;
20336;SDS011;10326;53.660;10.200;2023-11-21T10:23:51;3.38;;;3.08;;
20336;SDS011;10326;53.660;10.200;2023-11-21T10:26:20;3.65;;;3.35;;
20336;SDS011;10326;53.660;10.200;2023-11-21T10:28:58;3.63;;;3.33;;
20336;SDS011;10326;53.660;10.200;2023-11-21T10:31:26;3.30;;;3.00;;
20336;SDS011;10326;53.660;10.200;2023-11-21T10:33:55;3.92;;;3.53;;
20336;SDS011;10326;53.660;10.200;2023-11-21T10:36:42;3.60;;;3.30;;
20336;SDS011;10326;53.660;10.200;2023-11-21T10:39:11;3.30;;;2.92;;
20336;SDS011;10326;53.660;10.200;2023-11-21T10:41:44;3.83;;;3.53;;
20336;SDS011;10326;53.660;10.200;2023-11-21T10:44:13;3.58;;;3.28;;
20336;SDS011;10326;53.660;10.200;2023-11-21T10:49:17;4.18;;;3.58;;
20336;SDS011;10326;53.660;10.200;2023-11-21T10:51:45;4.10;;;3.55;;
20336;SDS011;10326;53.660;10.200;2023-11-21T10:54:18;4.13;;;3.42;;
20336;SDS011;10326;53.660;10.200;2023-11-21T10:56:47;5.28;;;3.70;;
20336;SDS011;10326;53.660;10.200;2023-11-21T10:59:17;4.03;;;3.53;;
20336;SDS011;10326;53.660;10.200;2023-11-21T11:01:46;4.28;;;3.72;;
20336;SDS011;10326;53.660;10.200;2023-11-21T11:04:17;4.40;;;3.50;;
20336;SDS011;10326;53.660;10.200;2023-11-21T11:06:48;3.90;;;3.47;;
20336;SDS011;10326;53.660;10.200;2023-11-21T11:09:22;4.45;;;3.60;;
20336;SDS011;10326;53.660;10.200;2023-11-21T11:11:51;3.17;;;2.75;;
20336;SDS011;10326;53.660;10.200;2023-11-21T11:14:19;3.95;;;3.33;;
20336;SDS011;10326;53.660;10.200;2023-11-21T11:16:50;3.50;;;3.20;;
20336;SDS011;10326;53.660;10.200;2023-11-21T11:19:20;3.70;;;3.40;;
20336;SDS011;10326;53.660;10.200;2023-11-21T11:21:50;3.47;;;2.97;;
20336;SDS011;10326;53.660;10.200;2023-11-21T11:24:31;3.53;;;3.03;;
20336;SDS011;10326;53.660;10.200;2023-11-21T11:27:15;3.67;;;3.38;;
20336;SDS011;10326;53.660;10.200;2023-11-21T11:29:53;3.40;;;3.10;;
20336;SDS011;10326;53.660;10.200;2023-11-21T11:32:30;4.22;;;3.83;;
20336;SDS011;10326;53.660;10.200;2023-11-21T11:35:09;4.00;;;3.67;;
20336;SDS011;10326;53.660;10.200;2023-11-21T11:37:43;3.75;;;3.45;;
20336;SDS011;10326;53.660;10.200;2023-11-21T11:40:12;4.10;;;3.70;;
20336;SDS011;10326;53.660;10.200;2023-11-21T11:42:41;3.78;;;3.35;;
20336;SDS011;10326;53.660;10.200;2023-11-21T11:45:24;3.53;;;3.17;;
20336;SDS011;10326;53.660;10.200;2023-11-21T11:48:01;3.60;;;3.35;;
20336;SDS011;10326;53.660;10.200;2023-11-21T11:50:31;3.97;;;3.58;;
20336;SDS011;10326;53.660;10.200;2023-11-21T11:53:11;4.03;;;3.63;;
20336;SDS011;10326;53.660;10.200;2023-11-21T11:55:41;3.70;;;3.40;;
20336;SDS011;10326;53.660;10.200;2023-11-21T11:58:08;5.22;;;3.63;;
20336;SDS011;10326;53.660;10.200;2023-11-21T12:00:36;3.80;;;3.40;;
20336;SDS011;10326;53.660;10.200;2023-11-21T12:03:06;4.00;;;3.50;;
20336;SDS011;10326;53.660;10.200;2023-11-21T12:05:35;4.20;;;3.38;;
20336;SDS011;10326;53.660;10.200;2023-11-21T12:08:04;4.10;;;3.55;;
20336;SDS011;10326;53.660;10.200;2023-11-21T12:10:33;3.58;;;3.28;;
20336;SDS011;10326;53.660;10.200;2023-11-21T12:13:06;3.38;;;3.10;;
20336;SDS011;10326;53.660;10.200;2023-11-21T12:15:35;3.60;;;3.30;;
20336;SDS011;10326;53.660;10.200;2023-11-21T12:18:04;4.88;;;3.28;;
20336;SDS011;10326;53.660;10.200;2023-11-21T12:20:31;3.67;;;3.08;;
20336;SDS011;10326;53.660;10.200;2023-11-21T12:23:03;6.20;;;3.20;;
20336;SDS011;10326;53.660;10.200;2023-11-21T12:25:31;3.40;;;3.05;;
20336;SDS011;10326;53.660;10.200;2023-11-21T12:27:59;3.20;;;2.90;;
20336;SDS011;10326;53.660;10.200;2023-11-21T12:30:29;3.35;;;3.00;;
20336;SDS011;10326;53.660;10.200;2023-11-21T12:32:58;3.38;;;3.17;;
20336;SDS011;10326;53.660;10.200;2023-11-21T12:35:27;3.78;;;3.40;;
20336;SDS011;10326;53.660;10.200;2023-11-21T12:37:59;3.38;;;3.13;;
20336;SDS011;10326;53.660;10.200;2023-11-21T12:40:27;4.50;;;3.20;;
20336;SDS011;10326;53.660;10.200;2023-11-21T12:42:56;3.10;;;2.80;;
20336;SDS011;10326;53.660;10.200;2023-11-21T12:45:28;3.53;;;3.22;;
20336;SDS011;10326;53.660;10.200;2023-11-21T12:47:57;3.80;;;3.45;;
20336;SDS011;10326;53.660;10.200;2023-11-21T12:50:28;3.90;;;3.28;;
20336;SDS011;10326;53.660;10.200;2023-11-21T12:52:59;3.65;;;3.10;;
20336;SDS011;10326;53.660;10.200;2023-11-21T12:55:30;3.42;;;3.15;;
20336;SDS011;10326;53.660;10.200;2023-11-21T12:58:02;3.47;;;3.17;;
20336;SDS011;10326;53.660;10.200;2023-11-21T13:00:35;3.58;;;3.28;;
20336;SDS011;10326;53.660;10.200;2023-11-21T13:03:07;3.42;;;3.13;;
20336;SDS011;10326;53.660;10.200;2023-11-21T13:05:37;4.00;;;3.55;;
20336;SDS011;10326;53.660;10.200;2023-11-21T13:08:08;3.42;;;3.13;;
20336;SDS011;10326;53.660;10.200;2023-11-21T13:10:38;3.63;;;3.33;;
20336;SDS011;10326;53.660;10.200;2023-11-21T13:13:08;4.05;;;3.42;;
20336;SDS011;10326;53.660;10.200;2023-11-21T13:15:48;3.92;;;3.53;;
20336;SDS011;10326;53.660;10.200;2023-11-21T13:18:17;3.58;;;3.28;;
20336;SDS011;10326;53.660;10.200;2023-11-21T13:20:46;4.18;;;3.30;;
20336;SDS011;10326;53.660;10.200;2023-11-21T13:23:14;4.07;;;3.40;;
20336;SDS011;10326;53.660;10.200;2023-11-21T13:25:42;3.58;;;3.28;;
20336;SDS011;10326;53.660;10.200;2023-11-21T13:28:10;3.60;;;3.30;;
20336;SDS011;10326;53.660;10.200;2023-11-21T13:30:40;3.80;;;3.33;;
20336;SDS011;10326;53.660;10.200;2023-11-21T13:33:11;4.20;;;3.35;;
20336;SDS011;10326;53.660;10.200;2023-11-21T13:35:42;3.42;;;3.13;;
20336;SDS011;10326;53.660;10.200;2023-11-21T13:38:13;3.42;;;3.10;;
20336;SDS011;10326;53.660;10.200;2023-11-21T13:40:46;3.47;;;3.10;;
20336;SDS011;10326;53.660;10.200;2023-11-21T13:43:18;16.15;;;3.45;;
20336;SDS011;10326;53.660;10.200;2023-11-21T13:45:51;3.40;;;3.10;;
20336;SDS011;10326;53.660;10.200;2023-11-21T13:48:29;4.68;;;3.38;;
20336;SDS011;10326;53.660;10.200;2023-11-21T13:51:08;3.75;;;3.20;;
20336;SDS011;10326;53.660;10.200;2023-11-21T13:53:42;3.95;;;3.33;;
20336;SDS011;10326;53.660;10.200;2023-11-21T13:56:15;3.72;;;3.30;;
20336;SDS011;10326;53.660;10.200;2023-11-21T13:58:47;3.15;;;2.85;;
20336;SDS011;10326;53.660;10.200;2023-11-21T14:01:24;4.07;;;2.97;;
20336;SDS011;10326;53.660;10.200;2023-11-21T14:04:11;3.00;;;2.40;;
20336;SDS011;10326;53.660;10.200;2023-11-21T14:06:45;3.28;;;3.03;;
20336;SDS011;10326;53.660;10.200;2023-11-21T14:09:14;2.58;;;2.38;;
20336;SDS011;10326;53.660;10.200;2023-11-21T14:11:51;3.95;;;2.78;;
20336;SDS011;10326;53.660;10.200;2023-11-21T14:14:21;2.67;;;2.47;;
20336;SDS011;10326;53.660;10.200;2023-11-21T14:16:51;3.40;;;2.88;;
20336;SDS011;10326;53.660;10.200;2023-11-21T14:19:21;2.90;;;2.70;;
20336;SDS011;10326;53.660;10.200;2023-11-21T14:21:53;2.50;;;2.30;;
20336;SDS011;10326;53.660;10.200;2023-11-21T14:24:21;2.53;;;2.33;;
20336;SDS011;10326;53.660;10.200;2023-11-21T14:26:49;3.65;;;2.38;;
20336;SDS011;10326;53.660;10.200;2023-11-21T14:29:18;2.33;;;2.10;;
20336;SDS011;10326;53.660;10.200;2023-11-21T14:31:53;2.40;;;1.90;;
20336;SDS011;10326;53.660;10.200;2023-11-21T14:34:36;2.90;;;2.60;;
20336;SDS011;10326;53.660;10.200;2023-11-21T14:37:03;2.97;;;2.65;;
20336;SDS011;10326;53.660;10.200;2023-11-21T14:39:30;2.47;;;2.25;;
20336;SDS011;10326;53.660;10.200;2023-11-21T14:42:03;2.50;;;2.30;;
20336;SDS011;10326;53.660;10.200;2023-11-21T14:44:33;2.70;;;2.30;;
20336;SDS011;10326;53.660;10.200;2023-11-21T14:47:04;2.58;;;2.35;;